Time;durP1;ratioP1;P1;durP2;ratioP2;P2;SDS_P1;SDS_P2;PMS_P1;PMS_P2;Temp;Humidity;BMP_temperature;BMP_pressure;BME280_temperature;BME280_humidity;BME280_pressure;Samples;Min_cycle;Max_cycle;Signal;HPM_P1;HPM_P2
2021/10/12 00:02:05;;;;;;;29.27;11.73;;;;;;;;;;10385178;28;20072;-68
2021/10/12 00:07:08;;;;;;;32.00;12.60;;;;;;;;;;10387204;28;20283;-70
2021/10/12 00:12:12;;;;;;;18.73;6.50;;;;;;;;;;10383395;28;20434;-69
2021/10/12 00:17:15;;;;;;;30.92;11.77;;;;;;;;;;10379445;28;20049;-70
2021/10/12 00:22:18;;;;;;;23.48;9.10;;;;;;;;;;10386200;28;20127;-70
2021/10/12 00:27:22;;;;;;;26.63;10.20;;;;;;;;;;10382283;28;20137;-70
2021/10/12 00:32:25;;;;;;;22.05;8.13;;;;;;;;;;10389885;28;20061;-72
2021/10/12 00:37:28;;;;;;;22.90;8.45;;;;;;;;;;10387998;28;20112;-72
2021/10/12 00:42:32;;;;;;;17.85;6.90;;;;;;;;;;10384559;28;20052;-71
2021/10/12 00:47:35;;;;;;;20.85;6.90;;;;;;;;;;10398812;28;20046;-70
2021/10/12 00:52:38;;;;;;;16.15;7.07;;;;;;;;;;10388476;28;20068;-69
2021/10/12 00:57:42;;;;;;;18.42;6.60;;;;;;;;;;10389118;28;20041;-68
2021/10/12 01:02:45;;;;;;;20.33;8.05;;;;;;;;;;10388586;28;20716;-71
2021/10/12 01:07:49;;;;;;;20.23;7.45;;;;;;;;;;10396181;28;20043;-70
2021/10/12 01:12:54;;;;;;;22.08;8.52;;;;;;;;;;10390729;28;20060;-70
2021/10/12 01:18:16;;;;;;;;;;;;;;;;;;10392414;28;20045;-71
2021/10/12 01:23:38;;;;;;;26.60;8.80;;;;;;;;;;10393001;28;19925;-70
2021/10/12 01:29:01;;;;;;;25.73;9.52;;;;;;;;;;10386084;28;20815;-71
2021/10/12 01:34:11;;;;;;;24.98;9.27;;;;;;;;;;10399085;28;20398;-68
2021/10/12 01:39:15;;;;;;;24.65;8.77;;;;;;;;;;10394668;28;20034;-71
2021/10/12 01:44:18;;;;;;;26.52;10.25;;;;;;;;;;10388723;28;20443;-71
2021/10/12 01:49:22;;;;;;;32.30;10.85;;;;;;;;;;10387899;28;20041;-69
2021/10/12 01:54:26;;;;;;;28.33;10.05;;;;;;;;;;10392827;28;20048;-71
2021/10/12 01:59:29;;;;;;;;;;;;;;;;;;10385020;28;20121;-70
2021/10/12 02:04:32;;;;;;;25.02;9.13;;;;;;;;;;10382200;28;19975;-71
2021/10/12 02:09:36;;;;;;;26.88;9.55;;;;;;;;;;10395658;28;20096;-71
2021/10/12 02:14:39;;;;;;;14.63;5.68;;;;;;;;;;10389308;28;20061;-72
2021/10/12 02:19:42;;;;;;;24.38;9.93;;;;;;;;;;10392605;28;20048;-70
2021/10/12 02:24:46;;;;;;;17.35;6.82;;;;;;;;;;10390886;28;20041;-71
2021/10/12 02:29:50;;;;;;;27.83;10.18;;;;;;;;;;10388352;28;20695;-70
2021/10/12 02:34:52;;;;;;;33.10;10.95;;;;;;;;;;10380225;28;20050;-71
2021/10/12 02:39:57;;;;;;;28.30;11.15;;;;;;;;;;10388794;28;20139;-72
2021/10/12 02:44:59;;;;;;;;;;;;;;;;;;10387499;28;20128;-73
2021/10/12 02:50:02;;;;;;;20.98;7.65;;;;;;;;;;10382226;28;19986;-71
2021/10/12 02:55:07;;;;;;;34.45;12.20;;;;;;;;;;10389325;28;20037;-71
2021/10/12 03:00:10;;;;;;;26.10;9.95;;;;;;;;;;10395852;28;20478;-70
2021/10/12 03:05:13;;;;;;;28.97;10.67;;;;;;;;;;10383628;28;20113;-71
2021/10/12 03:10:17;;;;;;;29.15;10.63;;;;;;;;;;10391904;28;20490;-71
2021/10/12 03:15:19;;;;;;;;;;;;;;;;;;10390247;28;20159;-69
2021/10/12 03:20:23;;;;;;;23.05;8.70;;;;;;;;;;10396803;28;19920;-70
2021/10/12 03:25:28;;;;;;;25.73;9.63;;;;;;;;;;10384191;28;20052;-71
2021/10/12 03:30:30;;;;;;;19.90;7.43;;;;;;;;;;10386839;28;20712;-71
2021/10/12 03:35:35;;;;;;;35.67;11.73;;;;;;;;;;10389558;28;20041;-70
2021/10/12 03:40:39;;;;;;;32.72;10.98;;;;;;;;;;10388911;28;20057;-72
2021/10/12 03:45:42;;;;;;;;;;;;;;;;;;10385784;28;20420;-70
2021/10/12 03:50:45;;;;;;;32.17;11.20;;;;;;;;;;10395860;28;19921;-70
2021/10/12 03:55:49;;;;;;;31.88;11.02;;;;;;;;;;10383190;28;20106;-70
2021/10/12 04:00:51;;;;;;;;;;;;;;;;;;10383949;28;20409;-69
2021/10/12 04:05:54;;;;;;;30.83;10.20;;;;;;;;;;10384257;28;19922;-70
2021/10/12 04:10:58;;;;;;;38.00;11.93;;;;;;;;;;10388254;28;20062;-71
2021/10/12 04:16:01;;;;;;;;;;;;;;;;;;10387114;28;20521;-70
2021/10/12 04:21:04;;;;;;;29.00;11.30;;;;;;;;;;10389095;28;19921;-69
2021/10/12 04:26:11;;;;;;;15.35;5.75;;;;;;;;;;10395973;28;20108;-68
2021/10/12 04:31:15;;;;;;;35.53;11.38;;;;;;;;;;10391853;28;20037;-71
2021/10/12 04:36:18;;;;;;;40.75;11.25;;;;;;;;;;10391703;28;20034;-69
2021/10/12 04:41:22;;;;;;;30.20;9.45;;;;;;;;;;10392536;28;20050;-70
2021/10/12 04:46:24;;;;;;;36.33;11.23;;;;;;;;;;10392527;28;20121;-68
2021/10/12 04:51:27;;;;;;;31.15;10.88;;;;;;;;;;10397053;28;20456;-70
2021/10/12 04:56:31;;;;;;;13.13;5.88;;;;;;;;;;10398929;28;20060;-70
2021/10/12 05:01:34;;;;;;;;;;;;;;;;;;10395555;28;20030;-69
2021/10/12 05:06:39;;;;;;;21.77;6.95;;;;;;;;;;10398443;28;19929;-70
2021/10/12 05:11:44;;;;;;;21.23;6.75;;;;;;;;;;10387386;28;20308;-68
2021/10/12 05:16:49;;;;;;;;;;;;;;;;;;10387888;28;20046;-70
2021/10/12 05:21:52;;;;;;;24.75;8.93;;;;;;;;;;10389818;28;20332;-71
2021/10/12 05:26:56;;;;;;;36.87;12.10;;;;;;;;;;10389822;28;20029;-70
2021/10/12 05:31:59;;;;;;;;;;;;;;;;;;10392897;28;20100;-71
2021/10/12 05:37:01;;;;;;;21.45;8.52;;;;;;;;;;10391377;28;19929;-71
2021/10/12 05:42:06;;;;;;;33.80;12.15;;;;;;;;;;10390943;28;20037;-70
2021/10/12 05:47:09;;;;;;;34.55;11.45;;;;;;;;;;10393646;28;20474;-71
2021/10/12 05:52:16;;;;;;;21.88;6.00;;;;;;;;;;10394951;28;20038;-70
2021/10/12 05:57:24;;;;;;;35.30;11.93;;;;;;;;;;10388804;28;20136;-72
2021/10/12 06:02:27;;;;;;;21.42;7.53;;;;;;;;;;10393190;28;20069;-71
2021/10/12 06:07:30;;;;;;;39.72;12.70;;;;;;;;;;10392950;28;20575;-70
2021/10/12 06:12:40;;;;;;;33.15;11.85;;;;;;;;;;10392669;28;20513;-71
2021/10/12 06:17:42;;;;;;;;;;;;;;;;;;10393830;28;20464;-70
2021/10/12 06:22:45;;;;;;;41.03;13.07;;;;;;;;;;10396851;28;20459;-72
2021/10/12 06:27:49;;;;;;;31.55;11.27;;;;;;;;;;10392018;28;20486;-72
2021/10/12 06:32:52;;;;;;;32.55;11.80;;;;;;;;;;10392941;28;20045;-70
2021/10/12 06:37:55;;;;;;;41.78;12.13;;;;;;;;;;10372949;28;21586;-70
2021/10/12 06:43:00;;;;;;;36.75;12.38;;;;;;;;;;10379907;28;20127;-72
2021/10/12 06:48:03;;;;;;;36.70;13.15;;;;;;;;;;10390142;28;20072;-71
2021/10/12 06:53:05;;;;;;;34.53;11.77;;;;;;;;;;10384716;28;20048;-70
2021/10/12 06:58:10;;;;;;;20.27;6.78;;;;;;;;;;10398657;28;20076;-71
2021/10/12 07:03:13;;;;;;;42.83;12.15;;;;;;;;;;10379766;28;20041;-71
2021/10/12 07:08:16;;;;;;;30.67;12.20;;;;;;;;;;10378428;28;20065;-72
2021/10/12 07:13:26;;;;;;;26.33;9.57;;;;;;;;;;10387833;28;20073;-70
2021/10/12 07:18:29;;;;;;;29.17;10.65;;;;;;;;;;10393550;28;20134;-71
2021/10/12 07:23:44;;;;;;;28.92;9.77;;;;;;;;;;10386735;28;22071;-70
2021/10/12 07:28:48;;;;;;;25.60;8.80;;;;;;;;;;10383063;28;20037;-72
2021/10/12 07:33:51;;;;;;;28.15;9.68;;;;;;;;;;10386174;28;20065;-71
2021/10/12 07:38:54;;;;;;;32.35;10.80;;;;;;;;;;10380880;28;20048;-71
2021/10/12 07:44:04;;;;;;;16.27;6.95;;;;;;;;;;10384948;28;20126;-72
2021/10/12 07:49:07;;;;;;;33.70;11.65;;;;;;;;;;10380513;28;20048;-71
2021/10/12 07:54:18;;;;;;;35.03;12.45;;;;;;;;;;10387632;28;20062;-70
2021/10/12 07:59:22;;;;;;;19.52;7.60;;;;;;;;;;10398775;28;20042;-70
2021/10/12 08:04:25;;;;;;;19.08;6.93;;;;;;;;;;10392191;28;20506;-69
2021/10/12 08:09:28;;;;;;;17.83;6.32;;;;;;;;;;10386327;28;20061;-71
2021/10/12 08:14:37;;;;;;;23.10;8.07;;;;;;;;;;10393672;28;20133;-71
2021/10/12 08:19:39;;;;;;;19.58;6.45;;;;;;;;;;10392750;28;20065;-73
2021/10/12 08:24:42;;;;;;;17.48;7.72;;;;;;;;;;10389924;28;20049;-71
2021/10/12 08:29:47;;;;;;;21.00;7.65;;;;;;;;;;10400883;28;20034;-71
2021/10/12 08:34:50;;;;;;;14.25;5.43;;;;;;;;;;10393817;28;20071;-69
2021/10/12 08:39:53;;;;;;;27.88;9.65;;;;;;;;;;10393760;28;20091;-69
2021/10/12 08:45:01;;;;;;;27.83;9.20;;;;;;;;;;10392377;28;20074;-72
2021/10/12 08:50:06;;;;;;;29.48;9.73;;;;;;;;;;10394748;28;20865;-71
2021/10/12 08:55:09;;;;;;;10.07;5.47;;;;;;;;;;10390196;28;20569;-68
2021/10/12 09:00:14;;;;;;;21.45;7.68;;;;;;;;;;10399551;28;20084;-70
2021/10/12 09:05:23;;;;;;;20.25;8.27;;;;;;;;;;10395081;28;20045;-70
2021/10/12 09:10:25;;;;;;;25.70;7.85;;;;;;;;;;10389301;28;20033;-70
2021/10/12 09:15:30;;;;;;;13.40;5.55;;;;;;;;;;10396279;28;20426;-69
2021/10/12 09:20:33;;;;;;;19.08;7.20;;;;;;;;;;10387907;28;20149;-73
2021/10/12 09:25:37;;;;;;;24.58;8.50;;;;;;;;;;10394755;28;20038;-70
2021/10/12 09:30:41;;;;;;;10.73;4.85;;;;;;;;;;10398723;28;20058;-70
2021/10/12 09:35:44;;;;;;;6.80;2.90;;;;;;;;;;10393476;28;20111;-70
2021/10/12 09:40:47;;;;;;;21.37;7.43;;;;;;;;;;10387046;28;20088;-71
2021/10/12 09:45:51;;;;;;;10.43;4.55;;;;;;;;;;10390298;28;20081;-70
2021/10/12 09:51:09;;;;;;;19.20;6.65;;;;;;;;;;10380097;28;20352;-70
2021/10/12 09:56:12;;;;;;;12.40;5.55;;;;;;;;;;10386748;28;20049;-68
2021/10/12 10:01:17;;;;;;;13.38;5.82;;;;;;;;;;10390749;28;20140;-69
2021/10/12 10:06:21;;;;;;;9.55;4.28;;;;;;;;;;10386166;28;20073;-71
2021/10/12 10:11:26;;;;;;;13.07;4.53;;;;;;;;;;10379102;28;20095;-70
2021/10/12 10:16:30;;;;;;;18.85;7.97;;;;;;;;;;10398677;28;20096;-72
2021/10/12 10:21:37;;;;;;;15.30;5.05;;;;;;;;;;10387931;28;20715;-72
2021/10/12 10:26:40;;;;;;;17.38;6.13;;;;;;;;;;10384382;28;20466;-71
2021/10/12 10:31:45;;;;;;;16.00;5.45;;;;;;;;;;10394038;28;20030;-69
2021/10/12 10:36:47;;;;;;;14.25;5.40;;;;;;;;;;10388718;28;20049;-71
2021/10/12 10:41:50;;;;;;;14.82;5.80;;;;;;;;;;10387436;28;20073;-70
2021/10/12 10:46:54;;;;;;;16.20;6.65;;;;;;;;;;10392838;28;20045;-71
2021/10/12 10:52:04;;;;;;;16.30;6.80;;;;;;;;;;10383600;28;20069;-70
2021/10/12 10:57:11;;;;;;;16.95;7.22;;;;;;;;;;10388409;28;20042;-73
2021/10/12 11:02:29;;;;;;;11.38;3.90;;;;;;;;;;10388904;28;20029;-71
2021/10/12 11:07:33;;;;;;;12.57;5.50;;;;;;;;;;10380782;28;20058;-72
2021/10/12 11:12:40;;;;;;;8.98;3.65;;;;;;;;;;10396187;28;20041;-71
2021/10/12 11:17:45;;;;;;;15.02;5.60;;;;;;;;;;10384638;28;20399;-69
2021/10/12 11:22:51;;;;;;;7.05;3.28;;;;;;;;;;10392333;28;20046;-70
2021/10/12 11:27:54;;;;;;;11.02;5.35;;;;;;;;;;10395187;28;20422;-70
2021/10/12 11:32:56;;;;;;;10.75;3.60;;;;;;;;;;10388503;28;20116;-71
2021/10/12 11:38:01;;;;;;;13.33;5.70;;;;;;;;;;10397945;28;20351;-67
2021/10/12 11:43:04;;;;;;;16.98;7.40;;;;;;;;;;10391867;28;20330;-67
2021/10/12 11:48:18;;;;;;;16.08;6.50;;;;;;;;;;10383466;28;20532;-69
2021/10/12 11:53:29;;;;;;;11.85;5.95;;;;;;;;;;10388620;28;20049;-72
2021/10/12 11:58:32;;;;;;;10.32;4.20;;;;;;;;;;10389427;28;20049;-71
2021/10/12 12:03:35;;;;;;;14.20;5.47;;;;;;;;;;10384841;28;20065;-70
2021/10/12 12:08:42;;;;;;;9.57;2.45;;;;;;;;;;10394659;28;20304;-67
2021/10/12 12:13:44;;;;;;;10.13;4.10;;;;;;;;;;10386405;28;20037;-68
2021/10/12 12:18:47;;;;;;;12.40;4.78;;;;;;;;;;10389999;28;20120;-70
2021/10/12 12:23:55;;;;;;;12.80;4.28;;;;;;;;;;10392403;28;20066;-70
2021/10/12 12:29:17;;;;;;;10.50;4.32;;;;;;;;;;10386495;28;20477;-70
2021/10/12 12:34:26;;;;;;;13.55;5.25;;;;;;;;;;10387049;28;20045;-70
2021/10/12 12:39:38;;;;;;;8.35;2.97;;;;;;;;;;10383029;28;20140;-71
2021/10/12 12:44:41;;;;;;;12.88;5.13;;;;;;;;;;10401934;28;20065;-71
2021/10/12 12:49:44;;;;;;;9.13;4.78;;;;;;;;;;10381646;28;20513;-71
2021/10/12 12:54:48;;;;;;;13.30;5.53;;;;;;;;;;10401446;28;20034;-69
2021/10/12 13:00:00;;;;;;;20.30;3.92;;;;;;;;;;10402161;28;20041;-70
2021/10/12 13:05:03;;;;;;;15.05;5.32;;;;;;;;;;10391702;28;20041;-70
2021/10/12 13:10:08;;;;;;;7.53;3.33;;;;;;;;;;10385402;28;20068;-70
2021/10/12 13:15:11;;;;;;;15.70;6.35;;;;;;;;;;10393452;28;20099;-67
2021/10/12 13:20:14;;;;;;;14.20;5.37;;;;;;;;;;10394370;28;20037;-68
2021/10/12 13:25:18;;;;;;;12.83;5.53;;;;;;;;;;10389484;28;20053;-70
2021/10/12 13:30:21;;;;;;;20.85;7.25;;;;;;;;;;10398000;28;20104;-70
2021/10/12 13:35:24;;;;;;;13.80;5.32;;;;;;;;;;10391236;28;20076;-68
2021/10/12 13:40:28;;;;;;;19.90;5.45;;;;;;;;;;10376525;28;20041;-71
2021/10/12 13:45:31;;;;;;;12.45;6.72;;;;;;;;;;10400769;28;20054;-70
2021/10/12 13:50:35;;;;;;;12.27;5.88;;;;;;;;;;10395851;28;20033;-71
2021/10/12 13:55:39;;;;;;;8.45;3.95;;;;;;;;;;10392858;28;20040;-70
2021/10/12 14:00:42;;;;;;;19.13;6.03;;;;;;;;;;10384624;28;20034;-71
2021/10/12 14:05:58;;;;;;;15.40;4.95;;;;;;;;;;10387728;28;20067;-71
2021/10/12 14:11:04;;;;;;;15.63;6.05;;;;;;;;;;10387643;28;20416;-71
2021/10/12 14:16:07;;;;;;;7.78;3.55;;;;;;;;;;10388692;28;20371;-70
2021/10/12 14:21:11;;;;;;;13.03;5.63;;;;;;;;;;10393398;28;20048;-68
2021/10/12 14:26:15;;;;;;;9.73;4.28;;;;;;;;;;10396681;28;20358;-69
2021/10/12 14:31:19;;;;;;;7.95;3.95;;;;;;;;;;10385036;28;20165;-69
2021/10/12 14:36:22;;;;;;;16.23;5.53;;;;;;;;;;10388623;28;20124;-68
2021/10/12 14:41:26;;;;;;;8.07;3.63;;;;;;;;;;10389400;28;20073;-69
2021/10/12 14:46:29;;;;;;;12.32;3.85;;;;;;;;;;10389947;28;20065;-72
2021/10/12 14:51:32;;;;;;;14.88;5.45;;;;;;;;;;10391750;28;20053;-71
2021/10/12 14:56:37;;;;;;;6.17;3.23;;;;;;;;;;10391307;28;20045;-71
2021/10/12 15:01:40;;;;;;;11.63;3.38;;;;;;;;;;10395768;28;20038;-69
2021/10/12 15:06:43;;;;;;;4.95;2.90;;;;;;;;;;10391851;28;20109;-70
2021/10/12 15:11:48;;;;;;;7.93;3.13;;;;;;;;;;10389724;28;20126;-69
2021/10/12 15:16:50;;;;;;;6.20;3.05;;;;;;;;;;10396256;28;20674;-68
2021/10/12 15:21:53;;;;;;;10.35;3.65;;;;;;;;;;10390634;28;20114;-70
2021/10/12 15:26:57;;;;;;;6.65;2.78;;;;;;;;;;10386025;28;20041;-71
2021/10/12 15:32:00;;;;;;;5.15;2.83;;;;;;;;;;10389364;28;20542;-71
2021/10/12 15:37:05;;;;;;;5.70;2.95;;;;;;;;;;10400155;28;20040;-69
2021/10/12 15:42:07;;;;;;;;;;;;;;;;;;10401673;28;20072;-70
2021/10/12 15:47:13;;;;;;;8.68;2.25;;;;;;;;;;10408839;28;20393;-70
2021/10/12 15:52:16;;;;;;;9.20;3.47;;;;;;;;;;10391505;28;20038;-72
2021/10/12 15:57:19;;;;;;;5.25;2.53;;;;;;;;;;10393156;28;20187;-69
2021/10/12 16:02:24;;;;;;;7.40;3.28;;;;;;;;;;10396100;28;20038;-70
2021/10/12 16:07:27;;;;;;;8.43;3.75;;;;;;;;;;10391737;28;20086;-70
2021/10/12 16:12:31;;;;;;;15.00;3.47;;;;;;;;;;10390172;28;20506;-68
2021/10/12 16:22:56;;;;;;;10.88;3.58;;;;;;;;;;10389360;28;19925;-70
2021/10/12 16:27:59;;;;;;;16.73;5.18;;;;;;;;;;10388503;28;20419;-71
2021/10/12 16:33:05;;;;;;;9.77;4.03;;;;;;;;;;10392417;28;20046;-67
2021/10/12 16:38:09;;;;;;;6.82;3.08;;;;;;;;;;10391422;28;20065;-69
2021/10/12 16:43:13;;;;;;;8.50;4.00;;;;;;;;;;10390014;28;20501;-69
2021/10/12 16:48:17;;;;;;;12.07;4.07;;;;;;;;;;10392705;28;20046;-69
2021/10/12 16:53:23;;;;;;;7.63;3.42;;;;;;;;;;10398243;28;20457;-69
2021/10/12 16:58:30;;;;;;;10.98;4.65;;;;;;;;;;10394380;28;20152;-69
2021/10/12 17:03:32;;;;;;;10.07;4.15;;;;;;;;;;10395054;28;20050;-70
2021/10/12 17:08:37;;;;;;;12.23;5.65;;;;;;;;;;10390034;28;20033;-71
2021/10/12 17:13:40;;;;;;;17.85;5.75;;;;;;;;;;10396428;28;20095;-68
2021/10/12 17:18:42;;;;;;;16.98;5.93;;;;;;;;;;10386886;28;20049;-67
2021/10/12 17:23:47;;;;;;;13.55;6.28;;;;;;;;;;10394938;28;20395;-69
2021/10/12 17:28:49;;;;;;;9.95;6.32;;;;;;;;;;10408985;28;20045;-69
2021/10/12 17:33:52;;;;;;;10.82;3.78;;;;;;;;;;10391944;28;20045;-69
2021/10/12 17:38:57;;;;;;;17.63;6.03;;;;;;;;;;10395889;28;20041;-69
2021/10/12 17:44:00;;;;;;;10.30;4.03;;;;;;;;;;10394153;28;20114;-70
2021/10/12 17:49:09;;;;;;;9.85;4.45;;;;;;;;;;10386877;28;20639;-68
2021/10/12 17:54:13;;;;;;;14.40;5.72;;;;;;;;;;10383328;28;20033;-69
2021/10/12 17:59:17;;;;;;;10.43;4.47;;;;;;;;;;10389498;28;20620;-67
2021/10/12 18:04:20;;;;;;;;;;;;;;;;;;10385633;28;20053;-69
2021/10/12 18:09:24;;;;;;;6.25;3.00;;;;;;;;;;10393043;28;19933;-70
2021/10/12 18:14:28;;;;;;;17.05;6.75;;;;;;;;;;10381941;28;20037;-70
2021/10/12 18:19:31;;;;;;;15.73;5.57;;;;;;;;;;10387837;28;20119;-68
2021/10/12 18:24:35;;;;;;;5.95;2.88;;;;;;;;;;10393833;28;20038;-69
2021/10/12 18:29:37;;;;;;;;;;;;;;;;;;10393046;28;20066;-70
2021/10/12 18:34:40;;;;;;;10.00;4.47;;;;;;;;;;10387732;28;20008;-68
2021/10/12 18:40:02;;;;;;;12.63;3.63;;;;;;;;;;10391666;28;20601;-71
2021/10/12 18:45:05;;;;;;;5.18;2.72;;;;;;;;;;10387987;28;20049;-69
2021/10/12 18:50:13;;;;;;;7.82;3.72;;;;;;;;;;10386810;28;20195;-71
2021/10/12 18:55:17;;;;;;;10.70;4.13;;;;;;;;;;10393147;28;20397;-71
2021/10/12 19:00:20;;;;;;;6.40;3.13;;;;;;;;;;10392290;28;20136;-71
2021/10/12 19:05:23;;;;;;;10.32;4.55;;;;;;;;;;10393037;28;20049;-70
2021/10/12 19:10:27;;;;;;;7.15;2.95;;;;;;;;;;10397198;28;20065;-71
2021/10/12 19:15:30;;;;;;;13.13;5.13;;;;;;;;;;10384393;28;20091;-71
2021/10/12 19:20:33;;;;;;;6.32;3.67;;;;;;;;;;10381991;28;20125;-71
2021/10/12 19:25:39;;;;;;;17.00;6.50;;;;;;;;;;10389574;28;20107;-72
2021/10/12 19:30:41;;;;;;;;;;;;;;;;;;10395274;28;20103;-71
2021/10/12 19:35:44;;;;;;;5.35;3.15;;;;;;;;;;10392739;28;19921;-70
2021/10/12 19:40:48;;;;;;;15.82;6.03;;;;;;;;;;10390700;28;20109;-69
2021/10/12 19:45:51;;;;;;;9.63;4.88;;;;;;;;;;10387041;28;20045;-70
2021/10/12 19:50:54;;;;;;;12.60;6.10;;;;;;;;;;10386967;28;20053;-71
2021/10/12 19:55:59;;;;;;;13.63;5.88;;;;;;;;;;10391199;28;20042;-72
2021/10/12 20:01:05;;;;;;;17.92;8.77;;;;;;;;;;10380517;28;22006;-72
2021/10/12 20:06:08;;;;;;;14.50;7.13;;;;;;;;;;10387833;28;20069;-69
2021/10/12 20:11:13;;;;;;;10.30;4.25;;;;;;;;;;10395612;28;20046;-71
2021/10/12 20:16:17;;;;;;;15.70;4.68;;;;;;;;;;10387794;28;20203;-71
2021/10/12 20:21:20;;;;;;;15.88;5.25;;;;;;;;;;10393011;28;20037;-70
2021/10/12 20:26:24;;;;;;;11.68;5.10;;;;;;;;;;10386431;28;20064;-70
2021/10/12 20:31:27;;;;;;;4.93;2.42;;;;;;;;;;10396202;28;20038;-73
2021/10/12 20:36:30;;;;;;;13.77;6.57;;;;;;;;;;10394038;28;20037;-72
2021/10/12 20:41:35;;;;;;;14.93;4.50;;;;;;;;;;10391418;28;20041;-71
2021/10/12 20:46:37;;;;;;;11.40;3.92;;;;;;;;;;10395769;28;20033;-70
2021/10/12 20:51:42;;;;;;;12.90;4.35;;;;;;;;;;10388364;28;20131;-71
2021/10/12 20:56:46;;;;;;;9.18;3.50;;;;;;;;;;10392034;28;20046;-71
2021/10/12 21:01:49;;;;;;;;;;;;;;;;;;10399205;28;20069;-72
2021/10/12 21:06:52;;;;;;;15.52;5.78;;;;;;;;;;10400100;28;19920;-71
2021/10/12 21:11:57;;;;;;;7.90;3.67;;;;;;;;;;10397463;28;20045;-72
2021/10/12 21:16:59;;;;;;;12.45;3.60;;;;;;;;;;10388841;28;20710;-72
2021/10/12 21:22:03;;;;;;;12.07;4.63;;;;;;;;;;10398973;28;20112;-70
2021/10/12 21:27:07;;;;;;;17.33;5.70;;;;;;;;;;10398621;28;20408;-72
2021/10/12 21:32:10;;;;;;;11.15;4.70;;;;;;;;;;10398943;28;20073;-70
2021/10/12 21:37:14;;;;;;;11.05;5.38;;;;;;;;;;10393653;28;20045;-72
2021/10/12 21:42:17;;;;;;;;;;;;;;;;;;10396155;28;20072;-72
2021/10/12 21:47:21;;;;;;;14.02;6.38;;;;;;;;;;10391434;28;20454;-74
2021/10/12 21:52:25;;;;;;;12.27;5.15;;;;;;;;;;10393020;28;20087;-72
2021/10/12 21:57:28;;;;;;;18.08;7.13;;;;;;;;;;10392967;28;20044;-71
2021/10/12 22:02:34;;;;;;;18.52;6.32;;;;;;;;;;10389931;28;20072;-72
2021/10/12 22:07:37;;;;;;;12.13;4.03;;;;;;;;;;10388164;28;20065;-71
2021/10/12 22:12:41;;;;;;;14.73;5.97;;;;;;;;;;10388584;28;20038;-70
2021/10/12 22:17:46;;;;;;;8.13;3.05;;;;;;;;;;10383710;28;20046;-70
2021/10/12 22:22:49;;;;;;;3.10;1.58;;;;;;;;;;10388402;28;20115;-69
2021/10/12 22:27:52;;;;;;;2.53;1.20;;;;;;;;;;10384866;28;20125;-72
2021/10/12 22:32:56;;;;;;;2.67;1.38;;;;;;;;;;10390997;28;20038;-72
2021/10/12 22:38:01;;;;;;;4.35;1.13;;;;;;;;;;10402302;28;20113;-72
2021/10/12 22:43:04;;;;;;;1.90;1.00;;;;;;;;;;10393761;28;20121;-72
2021/10/12 22:48:08;;;;;;;2.97;1.20;;;;;;;;;;10390418;28;20113;-72
2021/10/12 22:53:12;;;;;;;2.08;1.05;;;;;;;;;;10388501;28;20037;-72
2021/10/12 22:58:15;;;;;;;2.72;1.00;;;;;;;;;;10389976;28;20090;-70
2021/10/12 23:03:20;;;;;;;2.90;1.02;;;;;;;;;;10391631;28;20061;-72
2021/10/12 23:08:23;;;;;;;1.85;0.70;;;;;;;;;;10393833;28;20048;-72
2021/10/12 23:13:26;;;;;;;3.03;0.80;;;;;;;;;;10390850;28;20541;-71
2021/10/12 23:18:30;;;;;;;1.63;0.70;;;;;;;;;;10387013;28;20120;-72
2021/10/12 23:23:33;;;;;;;2.33;0.95;;;;;;;;;;10382580;28;20033;-72
2021/10/12 23:28:35;;;;;;;2.25;0.93;;;;;;;;;;10387041;28;20079;-72
2021/10/12 23:33:40;;;;;;;1.13;0.70;;;;;;;;;;10394553;28;20041;-72
2021/10/12 23:38:43;;;;;;;2.30;0.70;;;;;;;;;;10395667;28;20450;-71
2021/10/12 23:43:46;;;;;;;1.00;0.70;;;;;;;;;;10385924;28;20485;-73
2021/10/12 23:48:50;;;;;;;1.60;0.77;;;;;;;;;;10386594;28;20120;-72
2021/10/12 23:53:53;;;;;;;1.50;1.00;;;;;;;;;;10390365;28;20044;-70
2021/10/12 23:58:55;;;;;;;2.30;0.80;;;;;;;;;;10396801;28;20092;-73
